Dest Fox Harbr Too — ZCXB6 — position and weather

sailwx.info

Track history (hours):
 
Tides and Currents Weather Stations Pressure Air Temp Water Temp Dewpoint Dewpoint Depression Visibility Wind Speed Wind Dir Waves Ship Positions

Dest Fox Harbr Too

Last reported at 2016-Aug-27 21:21 UTC. Time now 2016-Aug-31 07:59 UTC.
Position N 39°34' E 002°38'.

Length 50 m; draft 2.4 m.

Type: Pleasure craft. MMSI: 319370000.

Date/timePositionNaut miles runAvg speedWind from/ knotsBaromVisibWave heightAir tempDewpointWater temp
2016-Aug-27 21:21N 39°34' E 002°38'0 0.0
2016-Aug-27 20:33N 39°34' E 002°38'0 0.0
2016-Aug-27 19:24N 39°34' E 002°38'0 0.0
2016-Aug-27 18:33N 39°34' E 002°38'0 0.0
2016-Aug-27 17:33N 39°34' E 002°38'0 0.0
2016-Aug-27 16:33N 39°34' E 002°38'0 0.0
2016-Aug-27 15:33N 39°34' E 002°38'0 0.0
2016-Aug-27 14:33N 39°34' E 002°38'0 0.0
2016-Aug-27 13:33N 39°34' E 002°38'0 0.0
2016-Aug-27 12:33N 39°34' E 002°38'0 0.4
2016-Aug-27 11:33N 39°34' E 002°38'1 0.7
2016-Aug-27 10:31N 39°34' E 002°39'0 0.0
2016-Aug-27 09:31N 39°34' E 002°39'0 0.0
2016-Aug-27 08:31N 39°34' E 002°39'0 0.0
2016-Aug-27 07:31N 39°34' E 002°39'0 0.0
2016-Aug-27 06:25N 39°34' E 002°39'7 3.5
2016-Aug-27 04:33N 39°28' E 002°35'8 8.2
2016-Aug-27 03:33N 39°28' E 002°25'1010.0
2016-Aug-27 02:32N 39°36' E 002°17'1211.0
2016-Aug-27 01:27N 39°45' E 002°28'1011.1
2016-Aug-27 00:33N 39°51' E 002°37'1110.9
2016-Aug-26 23:33N 39°59' E 002°47'1110.5
2016-Aug-26 22:33N 40°07' E 002°57'1010.4
2016-Aug-26 21:33N 40°14' E 003°06'1010.1
2016-Aug-26 20:33N 40°21' E 003°16'24810.7
2016-Aug-25 21:25N 43°23' E 007°03'1011.1
2016-Aug-25 20:32N 43°31' E 007°11'5 4.4
2016-Aug-25 19:29N 43°35' E 007°08'0 0.0
2016-Aug-25 18:32N 43°35' E 007°08'0 0.0
2016-Aug-25 17:32N 43°35' E 007°08'0 0.0
2016-Aug-25 16:29N 43°35' E 007°08'0 0.0
2016-Aug-25 15:29N 43°35' E 007°08'0 0.0
2016-Aug-25 14:29N 43°35' E 007°08'0 0.0
2016-Aug-25 13:29N 43°35' E 007°08'0 0.0
2016-Aug-25 12:29N 43°35' E 007°08'0 0.0
2016-Aug-25 11:29N 43°35' E 007°08'0 0.0
2016-Aug-25 10:29N 43°35' E 007°08'0 0.0
2016-Aug-25 09:29N 43°35' E 007°08'0 0.0
2016-Aug-25 08:29N 43°35' E 007°08'0 0.0
2016-Aug-25 07:23N 43°35' E 007°08'0 0.0
2016-Aug-25 06:29N 43°35' E 007°08'75 9.3
2016-Aug-24 22:30N 43°16' E 008°47'910.0
2016-Aug-24 21:33N 43°13' E 008°60'1010.3
2016-Aug-24 20:33N 43°10' E 009°13'3610.8
2016-Aug-24 17:12N 42°49' E 009°54'710.6
2016-Aug-24 16:32N 42°44' E 010°01'20410.7
2016-Aug-23 21:33N 40°52' E 013°49'1111.0
2016-Aug-23 20:33N 40°47' E 014°02'9 9.3
2016-Aug-23 19:33N 40°48' E 014°14'1 0.3
2016-Aug-23 15:23N 40°50' E 014°15'0 0.0
2016-Aug-23 14:29N 40°50' E 014°14'1 1.0
2016-Aug-23 13:32N 40°49' E 014°14'1010.2
2016-Aug-23 12:33N 40°39' E 014°16'1010.0
2016-Aug-23 11:33N 40°30' E 014°23'117 6.1
2016-Aug-22 16:31N 38°51' E 015°43'1010.2
2016-Aug-22 15:32N 38°41' E 015°44'1010.2
2016-Aug-22 14:33N 38°31' E 015°43'1110.8
2016-Aug-22 13:33N 38°20' E 015°43'8 8.3
2016-Aug-22 12:33N 38°13' E 015°37'9 9.4
2016-Aug-22 11:33N 38°04' E 015°36'  
Track history (hours):
 
Tides and Currents Weather Stations Pressure Air Temp Water Temp Dewpoint Dewpoint Depression Visibility Wind Speed Wind Dir Waves Ship Positions

Dest Fox Harbr Too

Last reported at 2016-Aug-27 21:21 UTC. Time now 2016-Aug-31 07:59 UTC.
Position N 39°34' E 002°38'.

Length 50 m; draft 2.4 m.

Type: Pleasure craft. MMSI: 319370000.

Date/timePositionNaut miles runAvg speedWind from/ knotsBaromVisibWave heightAir tempDewpointWater temp
2016-Aug-27 21:21N 39°34' E 002°38'0 0.0
2016-Aug-27 20:33N 39°34' E 002°38'0 0.0
2016-Aug-27 19:24N 39°34' E 002°38'0 0.0
2016-Aug-27 18:33N 39°34' E 002°38'0 0.0
2016-Aug-27 17:33N 39°34' E 002°38'0 0.0
2016-Aug-27 16:33N 39°34' E 002°38'0 0.0
2016-Aug-27 15:33N 39°34' E 002°38'0 0.0
2016-Aug-27 14:33N 39°34' E 002°38'0 0.0
2016-Aug-27 13:33N 39°34' E 002°38'0 0.0
2016-Aug-27 12:33N 39°34' E 002°38'0 0.4
2016-Aug-27 11:33N 39°34' E 002°38'1 0.7
2016-Aug-27 10:31N 39°34' E 002°39'0 0.0
2016-Aug-27 09:31N 39°34' E 002°39'0 0.0
2016-Aug-27 08:31N 39°34' E 002°39'0 0.0
2016-Aug-27 07:31N 39°34' E 002°39'0 0.0
2016-Aug-27 06:25N 39°34' E 002°39'7 3.5
2016-Aug-27 04:33N 39°28' E 002°35'8 8.2
2016-Aug-27 03:33N 39°28' E 002°25'1010.0
2016-Aug-27 02:32N 39°36' E 002°17'1211.0
2016-Aug-27 01:27N 39°45' E 002°28'1011.1
2016-Aug-27 00:33N 39°51' E 002°37'1110.9
2016-Aug-26 23:33N 39°59' E 002°47'1110.5
2016-Aug-26 22:33N 40°07' E 002°57'1010.4
2016-Aug-26 21:33N 40°14' E 003°06'1010.1
2016-Aug-26 20:33N 40°21' E 003°16'24810.7
2016-Aug-25 21:25N 43°23' E 007°03'1011.1
2016-Aug-25 20:32N 43°31' E 007°11'5 4.4
2016-Aug-25 19:29N 43°35' E 007°08'0 0.0
2016-Aug-25 18:32N 43°35' E 007°08'0 0.0
2016-Aug-25 17:32N 43°35' E 007°08'0 0.0
2016-Aug-25 16:29N 43°35' E 007°08'0 0.0
2016-Aug-25 15:29N 43°35' E 007°08'0 0.0
2016-Aug-25 14:29N 43°35' E 007°08'0 0.0
2016-Aug-25 13:29N 43°35' E 007°08'0 0.0
2016-Aug-25 12:29N 43°35' E 007°08'0 0.0
2016-Aug-25 11:29N 43°35' E 007°08'0 0.0
2016-Aug-25 10:29N 43°35' E 007°08'0 0.0
2016-Aug-25 09:29N 43°35' E 007°08'0 0.0
2016-Aug-25 08:29N 43°35' E 007°08'0 0.0
2016-Aug-25 07:23N 43°35' E 007°08'0 0.0
2016-Aug-25 06:29N 43°35' E 007°08'75 9.3
2016-Aug-24 22:30N 43°16' E 008°47'910.0
2016-Aug-24 21:33N 43°13' E 008°60'1010.3
2016-Aug-24 20:33N 43°10' E 009°13'3610.8
2016-Aug-24 17:12N 42°49' E 009°54'710.6
2016-Aug-24 16:32N 42°44' E 010°01'20410.7
2016-Aug-23 21:33N 40°52' E 013°49'1111.0
2016-Aug-23 20:33N 40°47' E 014°02'9 9.3
2016-Aug-23 19:33N 40°48' E 014°14'1 0.3
2016-Aug-23 15:23N 40°50' E 014°15'0 0.0
2016-Aug-23 14:29N 40°50' E 014°14'1 1.0
2016-Aug-23 13:32N 40°49' E 014°14'1010.2
2016-Aug-23 12:33N 40°39' E 014°16'1010.0
2016-Aug-23 11:33N 40°30' E 014°23'117 6.1
2016-Aug-22 16:31N 38°51' E 015°43'1010.2
2016-Aug-22 15:32N 38°41' E 015°44'1010.2
2016-Aug-22 14:33N 38°31' E 015°43'1110.8
2016-Aug-22 13:33N 38°20' E 015°43'8 8.3
2016-Aug-22 12:33N 38°13' E 015°37'9 9.4
2016-Aug-22 11:33N 38°04' E 015°36'  

Dump ship's entire track history